sensor_id;sensor_type;location;lat;lon;timestamp;P1;durP1;ratioP1;P2;durP2;ratioP2
17382;SDS011;8809;51.892;8.384;2024-01-11T00:01:59;27.48;;;15.57;;
17382;SDS011;8809;51.892;8.384;2024-01-11T00:04:26;31.75;;;14.88;;
17382;SDS011;8809;51.892;8.384;2024-01-11T00:06:54;24.23;;;14.40;;
17382;SDS011;8809;51.892;8.384;2024-01-11T00:09:21;26.83;;;13.88;;
17382;SDS011;8809;51.892;8.384;2024-01-11T00:11:48;27.95;;;14.88;;
17382;SDS011;8809;51.892;8.384;2024-01-11T00:14:16;32.05;;;15.05;;
17382;SDS011;8809;51.892;8.384;2024-01-11T00:16:43;28.60;;;14.80;;
17382;SDS011;8809;51.892;8.384;2024-01-11T00:19:10;26.33;;;13.68;;
17382;SDS011;8809;51.892;8.384;2024-01-11T00:21:37;26.70;;;13.93;;
17382;SDS011;8809;51.892;8.384;2024-01-11T00:24:05;26.02;;;14.38;;
17382;SDS011;8809;51.892;8.384;2024-01-11T00:26:32;28.15;;;15.00;;
17382;SDS011;8809;51.892;8.384;2024-01-11T00:29:00;31.33;;;15.15;;
17382;SDS011;8809;51.892;8.384;2024-01-11T00:31:27;30.02;;;14.90;;
17382;SDS011;8809;51.892;8.384;2024-01-11T00:33:54;27.08;;;15.20;;
17382;SDS011;8809;51.892;8.384;2024-01-11T00:36:21;32.17;;;15.98;;
17382;SDS011;8809;51.892;8.384;2024-01-11T00:38:48;27.77;;;14.70;;
17382;SDS011;8809;51.892;8.384;2024-01-11T00:41:17;28.52;;;15.98;;
17382;SDS011;8809;51.892;8.384;2024-01-11T00:43:44;30.27;;;16.65;;
17382;SDS011;8809;51.892;8.384;2024-01-11T00:46:11;27.60;;;13.98;;
17382;SDS011;8809;51.892;8.384;2024-01-11T00:48:38;30.15;;;15.65;;
17382;SDS011;8809;51.892;8.384;2024-01-11T00:51:05;27.00;;;15.38;;
17382;SDS011;8809;51.892;8.384;2024-01-11T00:53:32;28.25;;;14.55;;
17382;SDS011;8809;51.892;8.384;2024-01-11T00:55:59;32.35;;;16.13;;
17382;SDS011;8809;51.892;8.384;2024-01-11T00:58:28;28.08;;;14.77;;
17382;SDS011;8809;51.892;8.384;2024-01-11T01:00:55;32.42;;;16.85;;
17382;SDS011;8809;51.892;8.384;2024-01-11T01:03:22;35.88;;;17.25;;
17382;SDS011;8809;51.892;8.384;2024-01-11T01:05:49;37.35;;;18.25;;
17382;SDS011;8809;51.892;8.384;2024-01-11T01:08:16;28.45;;;16.08;;
17382;SDS011;8809;51.892;8.384;2024-01-11T01:10:43;32.72;;;16.88;;
17382;SDS011;8809;51.892;8.384;2024-01-11T01:13:10;35.55;;;18.58;;
17382;SDS011;8809;51.892;8.384;2024-01-11T01:15:38;36.70;;;17.40;;
17382;SDS011;8809;51.892;8.384;2024-01-11T01:18:06;29.98;;;16.40;;
17382;SDS011;8809;51.892;8.384;2024-01-11T01:20:32;31.75;;;16.38;;
17382;SDS011;8809;51.892;8.384;2024-01-11T01:23:01;36.92;;;16.85;;
17382;SDS011;8809;51.892;8.384;2024-01-11T01:25:28;30.35;;;16.73;;
17382;SDS011;8809;51.892;8.384;2024-01-11T01:27:55;31.50;;;17.33;;
17382;SDS011;8809;51.892;8.384;2024-01-11T01:30:24;34.75;;;18.58;;
17382;SDS011;8809;51.892;8.384;2024-01-11T01:32:53;34.03;;;17.15;;
17382;SDS011;8809;51.892;8.384;2024-01-11T01:35:20;32.70;;;18.00;;
17382;SDS011;8809;51.892;8.384;2024-01-11T01:37:47;29.80;;;15.43;;
17382;SDS011;8809;51.892;8.384;2024-01-11T01:40:15;27.80;;;15.32;;
17382;SDS011;8809;51.892;8.384;2024-01-11T01:42:43;30.70;;;15.63;;
17382;SDS011;8809;51.892;8.384;2024-01-11T01:45:10;31.58;;;16.10;;
17382;SDS011;8809;51.892;8.384;2024-01-11T01:47:39;30.60;;;15.77;;
17382;SDS011;8809;51.892;8.384;2024-01-11T01:50:09;32.92;;;16.05;;
17382;SDS011;8809;51.892;8.384;2024-01-11T01:52:38;33.72;;;15.70;;
17382;SDS011;8809;51.892;8.384;2024-01-11T01:55:07;30.25;;;16.65;;
17382;SDS011;8809;51.892;8.384;2024-01-11T01:57:37;33.10;;;16.05;;
17382;SDS011;8809;51.892;8.384;2024-01-11T02:00:07;30.42;;;16.98;;
17382;SDS011;8809;51.892;8.384;2024-01-11T02:02:38;29.98;;;16.30;;
17382;SDS011;8809;51.892;8.384;2024-01-11T02:05:06;31.23;;;17.05;;
17382;SDS011;8809;51.892;8.384;2024-01-11T02:07:35;29.98;;;15.43;;
17382;SDS011;8809;51.892;8.384;2024-01-11T02:10:02;30.50;;;17.27;;
17382;SDS011;8809;51.892;8.384;2024-01-11T02:12:30;28.40;;;15.88;;
17382;SDS011;8809;51.892;8.384;2024-01-11T02:14:57;30.80;;;16.52;;
17382;SDS011;8809;51.892;8.384;2024-01-11T02:17:25;32.50;;;16.48;;
17382;SDS011;8809;51.892;8.384;2024-01-11T02:19:52;31.70;;;15.20;;
17382;SDS011;8809;51.892;8.384;2024-01-11T02:22:20;31.92;;;16.75;;
17382;SDS011;8809;51.892;8.384;2024-01-11T02:24:51;31.63;;;18.27;;
17382;SDS011;8809;51.892;8.384;2024-01-11T02:27:18;32.25;;;15.98;;
17382;SDS011;8809;51.892;8.384;2024-01-11T02:29:45;28.90;;;16.55;;
17382;SDS011;8809;51.892;8.384;2024-01-11T02:32:12;34.10;;;17.27;;
17382;SDS011;8809;51.892;8.384;2024-01-11T02:34:40;31.33;;;16.80;;
17382;SDS011;8809;51.892;8.384;2024-01-11T02:37:08;30.80;;;17.00;;
17382;SDS011;8809;51.892;8.384;2024-01-11T02:39:35;28.55;;;15.68;;
17382;SDS011;8809;51.892;8.384;2024-01-11T02:42:04;31.48;;;17.13;;
17382;SDS011;8809;51.892;8.384;2024-01-11T02:44:31;32.95;;;17.02;;
17382;SDS011;8809;51.892;8.384;2024-01-11T02:46:58;37.28;;;17.70;;
17382;SDS011;8809;51.892;8.384;2024-01-11T02:49:25;35.97;;;17.20;;
17382;SDS011;8809;51.892;8.384;2024-01-11T02:51:52;30.75;;;16.05;;
17382;SDS011;8809;51.892;8.384;2024-01-11T02:54:19;34.90;;;17.83;;
17382;SDS011;8809;51.892;8.384;2024-01-11T02:56:46;35.45;;;18.90;;
17382;SDS011;8809;51.892;8.384;2024-01-11T02:59:16;30.08;;;17.00;;
17382;SDS011;8809;51.892;8.384;2024-01-11T03:01:43;30.58;;;17.35;;
17382;SDS011;8809;51.892;8.384;2024-01-11T03:04:10;29.55;;;15.38;;
17382;SDS011;8809;51.892;8.384;2024-01-11T03:06:39;28.67;;;15.55;;
17382;SDS011;8809;51.892;8.384;2024-01-11T03:09:06;31.55;;;16.98;;
17382;SDS011;8809;51.892;8.384;2024-01-11T03:11:34;35.38;;;18.08;;
17382;SDS011;8809;51.892;8.384;2024-01-11T03:14:02;32.67;;;15.32;;
17382;SDS011;8809;51.892;8.384;2024-01-11T03:16:31;32.90;;;17.58;;
17382;SDS011;8809;51.892;8.384;2024-01-11T03:18:58;30.65;;;15.90;;
17382;SDS011;8809;51.892;8.384;2024-01-11T03:21:25;29.42;;;16.92;;
17382;SDS011;8809;51.892;8.384;2024-01-11T03:23:52;35.90;;;17.40;;
17382;SDS011;8809;51.892;8.384;2024-01-11T03:26:20;33.63;;;17.17;;
17382;SDS011;8809;51.892;8.384;2024-01-11T03:28:46;32.40;;;16.00;;
17382;SDS011;8809;51.892;8.384;2024-01-11T03:31:13;36.58;;;16.38;;
17382;SDS011;8809;51.892;8.384;2024-01-11T03:33:41;27.63;;;15.50;;
17382;SDS011;8809;51.892;8.384;2024-01-11T03:36:08;29.95;;;16.00;;
17382;SDS011;8809;51.892;8.384;2024-01-11T03:38:36;32.50;;;16.42;;
17382;SDS011;8809;51.892;8.384;2024-01-11T03:41:07;27.63;;;14.88;;
17382;SDS011;8809;51.892;8.384;2024-01-11T03:43:35;30.52;;;15.07;;
17382;SDS011;8809;51.892;8.384;2024-01-11T03:46:02;28.38;;;14.52;;
17382;SDS011;8809;51.892;8.384;2024-01-11T03:48:29;29.60;;;15.90;;
17382;SDS011;8809;51.892;8.384;2024-01-11T03:50:58;29.88;;;16.00;;
17382;SDS011;8809;51.892;8.384;2024-01-11T03:53:25;30.35;;;15.57;;
17382;SDS011;8809;51.892;8.384;2024-01-11T03:55:52;28.75;;;14.70;;
17382;SDS011;8809;51.892;8.384;2024-01-11T03:58:19;31.60;;;15.45;;
17382;SDS011;8809;51.892;8.384;2024-01-11T04:00:46;29.17;;;14.85;;
17382;SDS011;8809;51.892;8.384;2024-01-11T04:03:13;36.38;;;15.82;;
17382;SDS011;8809;51.892;8.384;2024-01-11T04:05:40;33.33;;;17.10;;
17382;SDS011;8809;51.892;8.384;2024-01-11T04:08:09;32.22;;;16.75;;
17382;SDS011;8809;51.892;8.384;2024-01-11T04:10:36;31.85;;;15.70;;
17382;SDS011;8809;51.892;8.384;2024-01-11T04:13:03;25.58;;;15.02;;
17382;SDS011;8809;51.892;8.384;2024-01-11T04:15:30;31.73;;;15.80;;
17382;SDS011;8809;51.892;8.384;2024-01-11T04:17:57;31.52;;;16.83;;
17382;SDS011;8809;51.892;8.384;2024-01-11T04:20:24;30.73;;;15.50;;
17382;SDS011;8809;51.892;8.384;2024-01-11T04:22:51;31.02;;;17.30;;
17382;SDS011;8809;51.892;8.384;2024-01-11T04:25:19;33.28;;;16.42;;
17382;SDS011;8809;51.892;8.384;2024-01-11T04:27:47;27.83;;;15.05;;
17382;SDS011;8809;51.892;8.384;2024-01-11T04:30:14;29.88;;;14.95;;
17382;SDS011;8809;51.892;8.384;2024-01-11T04:32:41;25.63;;;13.23;;
17382;SDS011;8809;51.892;8.384;2024-01-11T04:35:08;27.10;;;14.32;;
17382;SDS011;8809;51.892;8.384;2024-01-11T04:37:35;28.13;;;13.30;;
17382;SDS011;8809;51.892;8.384;2024-01-11T04:40:02;26.20;;;13.00;;
17382;SDS011;8809;51.892;8.384;2024-01-11T04:42:32;25.65;;;13.13;;
17382;SDS011;8809;51.892;8.384;2024-01-11T04:44:59;27.27;;;14.63;;
17382;SDS011;8809;51.892;8.384;2024-01-11T04:47:26;26.98;;;14.20;;
17382;SDS011;8809;51.892;8.384;2024-01-11T04:49:53;26.98;;;14.07;;
17382;SDS011;8809;51.892;8.384;2024-01-11T04:52:20;28.00;;;14.43;;
17382;SDS011;8809;51.892;8.384;2024-01-11T04:54:47;27.55;;;14.77;;
17382;SDS011;8809;51.892;8.384;2024-01-11T04:57:14;30.23;;;14.23;;
17382;SDS011;8809;51.892;8.384;2024-01-11T04:59:43;29.95;;;13.98;;
17382;SDS011;8809;51.892;8.384;2024-01-11T05:02:10;27.17;;;14.20;;
17382;SDS011;8809;51.892;8.384;2024-01-11T05:04:37;30.25;;;14.90;;
17382;SDS011;8809;51.892;8.384;2024-01-11T05:07:04;24.10;;;12.90;;
17382;SDS011;8809;51.892;8.384;2024-01-11T05:09:31;31.27;;;15.52;;
17382;SDS011;8809;51.892;8.384;2024-01-11T05:11:59;26.75;;;13.65;;
17382;SDS011;8809;51.892;8.384;2024-01-11T05:14:26;28.92;;;14.35;;
17382;SDS011;8809;51.892;8.384;2024-01-11T05:16:54;25.13;;;13.25;;
17382;SDS011;8809;51.892;8.384;2024-01-11T05:19:21;27.17;;;14.82;;
17382;SDS011;8809;51.892;8.384;2024-01-11T05:21:48;24.15;;;13.85;;
17382;SDS011;8809;51.892;8.384;2024-01-11T05:24:15;30.33;;;16.50;;
17382;SDS011;8809;51.892;8.384;2024-01-11T05:26:42;36.70;;;18.33;;
17382;SDS011;8809;51.892;8.384;2024-01-11T05:29:09;31.75;;;16.27;;
17382;SDS011;8809;51.892;8.384;2024-01-11T05:31:36;37.17;;;20.00;;
17382;SDS011;8809;51.892;8.384;2024-01-11T05:34:06;33.80;;;17.08;;
17382;SDS011;8809;51.892;8.384;2024-01-11T05:36:34;32.25;;;15.60;;
17382;SDS011;8809;51.892;8.384;2024-01-11T05:39:01;29.75;;;15.18;;
17382;SDS011;8809;51.892;8.384;2024-01-11T05:41:28;29.63;;;14.30;;
17382;SDS011;8809;51.892;8.384;2024-01-11T05:43:55;28.98;;;15.15;;
17382;SDS011;8809;51.892;8.384;2024-01-11T05:46:22;27.80;;;14.70;;
17382;SDS011;8809;51.892;8.384;2024-01-11T05:48:49;28.17;;;14.38;;
17382;SDS011;8809;51.892;8.384;2024-01-11T05:51:17;28.73;;;15.00;;
17382;SDS011;8809;51.892;8.384;2024-01-11T05:53:44;30.13;;;15.23;;
17382;SDS011;8809;51.892;8.384;2024-01-11T05:56:11;26.20;;;14.82;;
17382;SDS011;8809;51.892;8.384;2024-01-11T05:58:39;29.88;;;15.48;;
17382;SDS011;8809;51.892;8.384;2024-01-11T06:01:06;30.70;;;15.90;;
17382;SDS011;8809;51.892;8.384;2024-01-11T06:03:33;29.90;;;16.13;;
17382;SDS011;8809;51.892;8.384;2024-01-11T06:06:00;26.15;;;14.63;;
17382;SDS011;8809;51.892;8.384;2024-01-11T06:08:30;32.72;;;17.05;;
17382;SDS011;8809;51.892;8.384;2024-01-11T06:10:57;33.42;;;16.48;;
17382;SDS011;8809;51.892;8.384;2024-01-11T06:13:24;32.90;;;16.00;;
17382;SDS011;8809;51.892;8.384;2024-01-11T06:15:51;28.63;;;15.43;;
17382;SDS011;8809;51.892;8.384;2024-01-11T06:18:18;29.60;;;15.50;;
17382;SDS011;8809;51.892;8.384;2024-01-11T06:20:45;27.55;;;15.25;;
17382;SDS011;8809;51.892;8.384;2024-01-11T06:23:12;30.77;;;16.10;;
17382;SDS011;8809;51.892;8.384;2024-01-11T06:25:41;30.17;;;15.18;;
17382;SDS011;8809;51.892;8.384;2024-01-11T06:28:08;31.33;;;15.80;;
17382;SDS011;8809;51.892;8.384;2024-01-11T06:30:36;29.50;;;15.00;;
17382;SDS011;8809;51.892;8.384;2024-01-11T06:33:03;26.02;;;14.75;;
17382;SDS011;8809;51.892;8.384;2024-01-11T06:35:30;28.83;;;14.18;;
17382;SDS011;8809;51.892;8.384;2024-01-11T06:37:57;27.70;;;14.38;;
17382;SDS011;8809;51.892;8.384;2024-01-11T06:40:24;29.20;;;13.77;;
17382;SDS011;8809;51.892;8.384;2024-01-11T06:42:53;28.35;;;14.75;;
17382;SDS011;8809;51.892;8.384;2024-01-11T06:45:20;28.30;;;15.27;;
17382;SDS011;8809;51.892;8.384;2024-01-11T06:47:47;30.30;;;16.40;;
17382;SDS011;8809;51.892;8.384;2024-01-11T06:50:15;34.55;;;17.25;;
17382;SDS011;8809;51.892;8.384;2024-01-11T06:52:42;30.48;;;16.98;;
17382;SDS011;8809;51.892;8.384;2024-01-11T06:55:09;32.17;;;15.50;;
17382;SDS011;8809;51.892;8.384;2024-01-11T06:57:36;30.63;;;15.88;;
17382;SDS011;8809;51.892;8.384;2024-01-11T07:00:06;31.88;;;16.90;;
17382;SDS011;8809;51.892;8.384;2024-01-11T07:02:34;35.63;;;18.60;;
17382;SDS011;8809;51.892;8.384;2024-01-11T07:05:01;30.05;;;16.20;;
17382;SDS011;8809;51.892;8.384;2024-01-11T07:07:28;29.77;;;15.48;;
17382;SDS011;8809;51.892;8.384;2024-01-11T07:09:55;27.20;;;14.27;;
17382;SDS011;8809;51.892;8.384;2024-01-11T07:12:22;30.52;;;16.80;;
17382;SDS011;8809;51.892;8.384;2024-01-11T07:14:52;31.73;;;15.60;;
17382;SDS011;8809;51.892;8.384;2024-01-11T07:17:20;28.65;;;14.93;;
17382;SDS011;8809;51.892;8.384;2024-01-11T07:19:48;24.00;;;13.10;;
17382;SDS011;8809;51.892;8.384;2024-01-11T07:22:15;31.00;;;15.32;;
17382;SDS011;8809;51.892;8.384;2024-01-11T07:24:44;30.50;;;16.10;;
17382;SDS011;8809;51.892;8.384;2024-01-11T07:27:11;27.38;;;15.25;;
17382;SDS011;8809;51.892;8.384;2024-01-11T07:29:38;29.65;;;14.75;;
17382;SDS011;8809;51.892;8.384;2024-01-11T07:32:05;28.50;;;16.02;;
17382;SDS011;8809;51.892;8.384;2024-01-11T07:34:34;28.80;;;14.85;;
17382;SDS011;8809;51.892;8.384;2024-01-11T07:37:01;30.38;;;14.63;;
17382;SDS011;8809;51.892;8.384;2024-01-11T07:39:29;34.10;;;17.15;;
17382;SDS011;8809;51.892;8.384;2024-01-11T07:41:58;30.90;;;15.43;;
17382;SDS011;8809;51.892;8.384;2024-01-11T07:44:25;31.35;;;15.25;;
17382;SDS011;8809;51.892;8.384;2024-01-11T07:46:52;27.45;;;15.02;;
17382;SDS011;8809;51.892;8.384;2024-01-11T07:49:19;29.75;;;15.75;;
17382;SDS011;8809;51.892;8.384;2024-01-11T07:51:49;29.08;;;15.55;;
17382;SDS011;8809;51.892;8.384;2024-01-11T07:54:16;34.30;;;17.60;;
17382;SDS011;8809;51.892;8.384;2024-01-11T07:56:43;29.35;;;15.32;;
17382;SDS011;8809;51.892;8.384;2024-01-11T07:59:10;33.20;;;16.27;;
17382;SDS011;8809;51.892;8.384;2024-01-11T08:01:39;33.58;;;16.88;;
17382;SDS011;8809;51.892;8.384;2024-01-11T08:04:06;29.08;;;16.20;;
17382;SDS011;8809;51.892;8.384;2024-01-11T08:06:33;26.67;;;14.55;;
17382;SDS011;8809;51.892;8.384;2024-01-11T08:09:02;28.08;;;15.75;;
17382;SDS011;8809;51.892;8.384;2024-01-11T08:11:30;30.17;;;14.52;;
17382;SDS011;8809;51.892;8.384;2024-01-11T08:13:59;29.08;;;13.75;;
17382;SDS011;8809;51.892;8.384;2024-01-11T08:16:26;30.90;;;15.35;;
17382;SDS011;8809;51.892;8.384;2024-01-11T08:18:53;29.42;;;16.40;;
17382;SDS011;8809;51.892;8.384;2024-01-11T08:21:20;27.33;;;16.35;;
17382;SDS011;8809;51.892;8.384;2024-01-11T08:23:47;26.17;;;15.55;;
17382;SDS011;8809;51.892;8.384;2024-01-11T08:26:16;32.67;;;16.17;;
17382;SDS011;8809;51.892;8.384;2024-01-11T08:28:44;37.30;;;19.92;;
17382;SDS011;8809;51.892;8.384;2024-01-11T08:31:12;43.88;;;24.65;;
17382;SDS011;8809;51.892;8.384;2024-01-11T08:33:41;44.83;;;23.55;;
17382;SDS011;8809;51.892;8.384;2024-01-11T08:36:08;48.45;;;24.17;;
17382;SDS011;8809;51.892;8.384;2024-01-11T08:38:36;48.83;;;23.48;;
17382;SDS011;8809;51.892;8.384;2024-01-11T08:41:04;38.40;;;20.65;;
17382;SDS011;8809;51.892;8.384;2024-01-11T08:43:33;37.13;;;19.83;;
17382;SDS011;8809;51.892;8.384;2024-01-11T08:46:00;35.22;;;18.00;;
17382;SDS011;8809;51.892;8.384;2024-01-11T08:48:28;34.90;;;17.63;;
17382;SDS011;8809;51.892;8.384;2024-01-11T08:50:55;32.40;;;16.73;;
17382;SDS011;8809;51.892;8.384;2024-01-11T08:53:22;32.90;;;16.50;;
17382;SDS011;8809;51.892;8.384;2024-01-11T08:55:51;29.10;;;15.77;;
17382;SDS011;8809;51.892;8.384;2024-01-11T08:58:18;33.13;;;18.48;;
17382;SDS011;8809;51.892;8.384;2024-01-11T09:00:47;33.97;;;18.27;;
17382;SDS011;8809;51.892;8.384;2024-01-11T09:03:14;42.38;;;23.45;;
17382;SDS011;8809;51.892;8.384;2024-01-11T09:05:42;42.67;;;21.27;;
17382;SDS011;8809;51.892;8.384;2024-01-11T09:08:09;39.45;;;19.80;;
17382;SDS011;8809;51.892;8.384;2024-01-11T09:10:37;37.03;;;21.75;;
17382;SDS011;8809;51.892;8.384;2024-01-11T09:13:05;41.97;;;21.15;;
17382;SDS011;8809;51.892;8.384;2024-01-11T09:15:37;41.38;;;21.75;;
17382;SDS011;8809;51.892;8.384;2024-01-11T09:18:08;40.35;;;20.48;;
17382;SDS011;8809;51.892;8.384;2024-01-11T09:20:35;39.00;;;19.30;;
17382;SDS011;8809;51.892;8.384;2024-01-11T09:23:02;47.95;;;22.80;;
17382;SDS011;8809;51.892;8.384;2024-01-11T09:25:30;34.83;;;18.40;;
17382;SDS011;8809;51.892;8.384;2024-01-11T09:27:57;35.90;;;18.17;;
17382;SDS011;8809;51.892;8.384;2024-01-11T09:30:24;31.67;;;17.60;;
17382;SDS011;8809;51.892;8.384;2024-01-11T09:32:54;34.53;;;15.85;;
17382;SDS011;8809;51.892;8.384;2024-01-11T09:35:23;34.15;;;16.75;;
17382;SDS011;8809;51.892;8.384;2024-01-11T09:37:50;31.58;;;16.02;;
17382;SDS011;8809;51.892;8.384;2024-01-11T09:40:17;32.22;;;15.60;;
17382;SDS011;8809;51.892;8.384;2024-01-11T09:42:47;27.88;;;14.35;;
17382;SDS011;8809;51.892;8.384;2024-01-11T09:45:15;34.17;;;17.10;;
17382;SDS011;8809;51.892;8.384;2024-01-11T09:47:43;38.95;;;16.75;;
17382;SDS011;8809;51.892;8.384;2024-01-11T09:50:12;63.88;;;28.90;;
17382;SDS011;8809;51.892;8.384;2024-01-11T09:52:46;51.97;;;23.17;;
17382;SDS011;8809;51.892;8.384;2024-01-11T09:55:14;52.83;;;24.20;;
17382;SDS011;8809;51.892;8.384;2024-01-11T09:57:43;63.72;;;25.98;;
17382;SDS011;8809;51.892;8.384;2024-01-11T10:00:12;47.58;;;21.27;;
17382;SDS011;8809;51.892;8.384;2024-01-11T10:02:41;44.92;;;21.25;;
17382;SDS011;8809;51.892;8.384;2024-01-11T10:05:08;49.85;;;22.65;;
17382;SDS011;8809;51.892;8.384;2024-01-11T10:07:36;51.05;;;24.30;;
17382;SDS011;8809;51.892;8.384;2024-01-11T10:10:06;42.80;;;20.38;;
17382;SDS011;8809;51.892;8.384;2024-01-11T10:12:35;35.92;;;19.45;;
17382;SDS011;8809;51.892;8.384;2024-01-11T10:15:05;33.97;;;19.33;;
17382;SDS011;8809;51.892;8.384;2024-01-11T10:17:35;36.10;;;20.40;;
17382;SDS011;8809;51.892;8.384;2024-01-11T10:20:03;35.50;;;18.65;;
17382;SDS011;8809;51.892;8.384;2024-01-11T10:22:31;33.85;;;19.05;;
17382;SDS011;8809;51.892;8.384;2024-01-11T10:25:10;35.13;;;17.17;;
17382;SDS011;8809;51.892;8.384;2024-01-11T10:27:39;30.42;;;17.02;;
17382;SDS011;8809;51.892;8.384;2024-01-11T10:30:09;34.40;;;16.73;;
17382;SDS011;8809;51.892;8.384;2024-01-11T10:32:38;28.20;;;15.75;;
17382;SDS011;8809;51.892;8.384;2024-01-11T10:35:06;33.63;;;16.58;;
17382;SDS011;8809;51.892;8.384;2024-01-11T10:37:33;32.90;;;17.02;;
17382;SDS011;8809;51.892;8.384;2024-01-11T10:40:02;30.30;;;17.08;;
17382;SDS011;8809;51.892;8.384;2024-01-11T10:42:39;31.98;;;16.23;;
17382;SDS011;8809;51.892;8.384;2024-01-11T10:45:10;33.25;;;16.42;;
17382;SDS011;8809;51.892;8.384;2024-01-11T10:47:42;30.98;;;16.20;;
17382;SDS011;8809;51.892;8.384;2024-01-11T10:50:17;32.10;;;19.08;;
17382;SDS011;8809;51.892;8.384;2024-01-11T10:52:50;30.65;;;17.60;;
17382;SDS011;8809;51.892;8.384;2024-01-11T10:55:29;34.13;;;18.90;;
17382;SDS011;8809;51.892;8.384;2024-01-11T10:58:01;31.90;;;18.85;;
17382;SDS011;8809;51.892;8.384;2024-01-11T11:00:29;29.00;;;17.88;;
17382;SDS011;8809;51.892;8.384;2024-01-11T11:02:58;26.92;;;16.77;;
17382;SDS011;8809;51.892;8.384;2024-01-11T11:05:27;28.50;;;16.23;;
17382;SDS011;8809;51.892;8.384;2024-01-11T11:07:56;29.23;;;17.27;;
17382;SDS011;8809;51.892;8.384;2024-01-11T11:10:25;28.35;;;15.80;;
17382;SDS011;8809;51.892;8.384;2024-01-11T11:12:55;30.23;;;17.17;;
17382;SDS011;8809;51.892;8.384;2024-01-11T11:15:27;28.05;;;16.17;;
17382;SDS011;8809;51.892;8.384;2024-01-11T11:17:55;28.92;;;15.27;;
17382;SDS011;8809;51.892;8.384;2024-01-11T11:20:22;24.83;;;15.07;;
17382;SDS011;8809;51.892;8.384;2024-01-11T11:23:02;24.75;;;14.90;;
17382;SDS011;8809;51.892;8.384;2024-01-11T11:25:30;26.50;;;15.23;;
17382;SDS011;8809;51.892;8.384;2024-01-11T11:27:58;24.20;;;14.32;;
17382;SDS011;8809;51.892;8.384;2024-01-11T11:30:28;24.02;;;13.75;;
17382;SDS011;8809;51.892;8.384;2024-01-11T11:32:55;25.40;;;14.07;;
17382;SDS011;8809;51.892;8.384;2024-01-11T11:35:22;22.58;;;13.77;;
17382;SDS011;8809;51.892;8.384;2024-01-11T11:37:53;22.50;;;12.60;;
17382;SDS011;8809;51.892;8.384;2024-01-11T11:40:21;26.48;;;14.05;;
17382;SDS011;8809;51.892;8.384;2024-01-11T11:42:58;20.65;;;12.40;;
17382;SDS011;8809;51.892;8.384;2024-01-11T11:45:29;20.98;;;11.63;;
17382;SDS011;8809;51.892;8.384;2024-01-11T11:47:58;25.10;;;14.25;;
17382;SDS011;8809;51.892;8.384;2024-01-11T11:50:27;22.27;;;13.60;;
17382;SDS011;8809;51.892;8.384;2024-01-11T11:52:58;21.00;;;12.13;;
17382;SDS011;8809;51.892;8.384;2024-01-11T11:55:26;23.95;;;12.63;;
17382;SDS011;8809;51.892;8.384;2024-01-11T11:57:53;17.13;;;10.45;;
17382;SDS011;8809;51.892;8.384;2024-01-11T12:00:21;22.10;;;11.38;;
17382;SDS011;8809;51.892;8.384;2024-01-11T12:02:53;17.67;;;10.48;;
17382;SDS011;8809;51.892;8.384;2024-01-11T12:05:24;17.15;;;10.30;;
17382;SDS011;8809;51.892;8.384;2024-01-11T12:07:51;16.65;;;8.93;;
17382;SDS011;8809;51.892;8.384;2024-01-11T12:10:19;16.95;;;9.10;;
17382;SDS011;8809;51.892;8.384;2024-01-11T12:12:47;17.67;;;9.25;;
17382;SDS011;8809;51.892;8.384;2024-01-11T12:15:15;17.90;;;9.23;;
17382;SDS011;8809;51.892;8.384;2024-01-11T12:17:44;15.50;;;8.55;;
17382;SDS011;8809;51.892;8.384;2024-01-11T12:20:13;14.40;;;7.78;;
17382;SDS011;8809;51.892;8.384;2024-01-11T12:22:41;12.68;;;7.68;;
17382;SDS011;8809;51.892;8.384;2024-01-11T12:25:09;17.20;;;8.65;;
17382;SDS011;8809;51.892;8.384;2024-01-11T12:27:37;17.52;;;9.50;;
17382;SDS011;8809;51.892;8.384;2024-01-11T12:30:06;17.35;;;9.75;;
17382;SDS011;8809;51.892;8.384;2024-01-11T12:32:36;16.92;;;7.90;;
17382;SDS011;8809;51.892;8.384;2024-01-11T12:35:04;14.35;;;8.05;;
17382;SDS011;8809;51.892;8.384;2024-01-11T12:37:33;12.95;;;7.20;;
17382;SDS011;8809;51.892;8.384;2024-01-11T12:40:00;13.95;;;7.60;;
17382;SDS011;8809;51.892;8.384;2024-01-11T12:42:27;10.45;;;6.80;;
17382;SDS011;8809;51.892;8.384;2024-01-11T12:44:55;12.13;;;6.72;;
17382;SDS011;8809;51.892;8.384;2024-01-11T12:47:22;15.07;;;9.60;;
17382;SDS011;8809;51.892;8.384;2024-01-11T12:49:50;16.67;;;10.10;;
17382;SDS011;8809;51.892;8.384;2024-01-11T12:52:18;14.90;;;9.13;;
17382;SDS011;8809;51.892;8.384;2024-01-11T12:54:47;14.48;;;9.23;;
17382;SDS011;8809;51.892;8.384;2024-01-11T12:57:19;13.23;;;8.32;;
17382;SDS011;8809;51.892;8.384;2024-01-11T12:59:46;14.23;;;8.05;;
17382;SDS011;8809;51.892;8.384;2024-01-11T13:02:15;16.02;;;9.25;;
17382;SDS011;8809;51.892;8.384;2024-01-11T13:04:43;17.08;;;10.43;;
17382;SDS011;8809;51.892;8.384;2024-01-11T13:07:11;18.65;;;10.07;;
17382;SDS011;8809;51.892;8.384;2024-01-11T13:09:41;17.85;;;11.00;;
17382;SDS011;8809;51.892;8.384;2024-01-11T13:12:09;19.25;;;11.98;;
17382;SDS011;8809;51.892;8.384;2024-01-11T13:14:36;26.38;;;12.95;;
17382;SDS011;8809;51.892;8.384;2024-01-11T13:17:05;21.67;;;11.80;;
17382;SDS011;8809;51.892;8.384;2024-01-11T13:19:33;23.08;;;12.93;;
17382;SDS011;8809;51.892;8.384;2024-01-11T13:22:00;25.83;;;13.52;;
17382;SDS011;8809;51.892;8.384;2024-01-11T13:24:28;22.50;;;12.35;;
17382;SDS011;8809;51.892;8.384;2024-01-11T13:26:55;23.75;;;11.77;;
17382;SDS011;8809;51.892;8.384;2024-01-11T13:29:23;20.50;;;11.70;;
17382;SDS011;8809;51.892;8.384;2024-01-11T13:31:51;22.95;;;11.27;;
17382;SDS011;8809;51.892;8.384;2024-01-11T13:34:18;19.08;;;10.88;;
17382;SDS011;8809;51.892;8.384;2024-01-11T13:36:45;24.48;;;11.85;;
17382;SDS011;8809;51.892;8.384;2024-01-11T13:39:12;22.75;;;12.70;;
17382;SDS011;8809;51.892;8.384;2024-01-11T13:41:39;18.05;;;11.13;;
17382;SDS011;8809;51.892;8.384;2024-01-11T13:44:09;20.55;;;9.90;;
17382;SDS011;8809;51.892;8.384;2024-01-11T13:46:38;17.38;;;9.10;;
17382;SDS011;8809;51.892;8.384;2024-01-11T13:49:05;20.05;;;10.60;;
17382;SDS011;8809;51.892;8.384;2024-01-11T13:51:32;26.70;;;11.65;;
17382;SDS011;8809;51.892;8.384;2024-01-11T13:53:59;19.50;;;10.40;;
17382;SDS011;8809;51.892;8.384;2024-01-11T13:56:27;20.67;;;10.15;;
17382;SDS011;8809;51.892;8.384;2024-01-11T13:58:54;21.27;;;11.40;;
17382;SDS011;8809;51.892;8.384;2024-01-11T14:01:24;23.17;;;12.15;;
17382;SDS011;8809;51.892;8.384;2024-01-11T14:03:54;16.52;;;10.45;;
17382;SDS011;8809;51.892;8.384;2024-01-11T14:06:21;18.67;;;10.25;;
17382;SDS011;8809;51.892;8.384;2024-01-11T14:08:49;14.90;;;9.13;;
17382;SDS011;8809;51.892;8.384;2024-01-11T14:11:16;19.63;;;10.75;;
17382;SDS011;8809;51.892;8.384;2024-01-11T14:13:43;22.55;;;13.00;;
17382;SDS011;8809;51.892;8.384;2024-01-11T14:16:10;21.48;;;11.57;;
17382;SDS011;8809;51.892;8.384;2024-01-11T14:18:38;26.42;;;12.52;;
17382;SDS011;8809;51.892;8.384;2024-01-11T14:21:07;22.45;;;11.88;;
17382;SDS011;8809;51.892;8.384;2024-01-11T14:23:36;16.42;;;10.07;;
17382;SDS011;8809;51.892;8.384;2024-01-11T14:26:04;16.48;;;9.18;;
17382;SDS011;8809;51.892;8.384;2024-01-11T14:28:31;16.35;;;9.07;;
17382;SDS011;8809;51.892;8.384;2024-01-11T14:30:58;17.63;;;9.75;;
17382;SDS011;8809;51.892;8.384;2024-01-11T14:33:25;17.55;;;10.40;;
17382;SDS011;8809;51.892;8.384;2024-01-11T14:35:53;14.43;;;8.85;;
17382;SDS011;8809;51.892;8.384;2024-01-11T14:38:25;17.80;;;9.27;;
17382;SDS011;8809;51.892;8.384;2024-01-11T14:40:52;17.17;;;10.25;;